Terminal Aerodrome Forecast
Issued by NWS

Home | Current Version | Previous Version | Graphics & Text | Print | Product List | Glossary Off
Versions: 1 2 3 4 5 6 7 8 9 10 11 12 13 14 15 16 17 18 19 20 21 22 23 24 25 26 27 28 29 30 31 32 33

000
FTUS43 KDDC 230540
TAFHYS
TAF
KHYS 230540Z 2306/2406 18015G25KT P6SM OVC025
     FM231000 21010KT P6SM OVC015
     FM231600 11008KT P6SM SCT250
     FM231900 12009KT P6SM BKN050
     FM232000 12008KT P6SM OVC250 PROB30 2322/2404 P6SM TS BKN050CB=

USA.gov is the U.S. government's official web portal to all federal, state and local government web resources and services.